Latest Coastal Weather Observations for Laverton

IDV60701

Issued at 3:02 pm EST Thursday 29 September 2016 (issued every 10 minutes, with the page automatically refreshed every 10 minutes)

About coastal observations | Map of coastal stations | Coastal observations for VIC | Marine services | Other Formats
Station Details ID: 087031 Name: LAVERTON RAAF Lat: -37.86 Lon: 144.76 Height: 20.1 m
Data from the previous 72 hours. | See also: Recent months at Laverton
Date/Time
EST
Temp
°C
Wind Pressure Rain since
9am
mm
Weather Cloud Vis
km
Sea
Height
m
Swell
Dir  Spd
kts
Gust
kts
hPa Trend Height
m
Period
s
Dir
29/03:00pm 14.7 N 15 20 987.9 - 0.0 - Partly cloudy 10 - - - -
29/02:30pm 15.7 NNW 15 21 988.0 - 0.0 - Partly cloudy 10 - - - -
29/02:00pm 15.7 N 14 21 988.2 - 0.0 - Partly cloudy 10 - - - -
29/01:30pm 15.2 N 13 22 988.5 - 0.0 - Partly cloudy 10 - - - -
29/01:00pm 15.6 NNW 16 23 988.9 - 0.0 - Partly cloudy 10 - - - -
29/12:30pm 15.3 NNW 17 25 989.4 - 0.0 - Partly cloudy 10 - - - -
29/12:27pm 15.3 NNW 15 25 989.4 - 0.0 - Partly cloudy 10 - - - -
29/12:00pm 15.1 N 16 22 989.6 - 0.0 - Mostly clear 10 - - - -
29/11:30am 14.9 NNW 18 23 989.5 - 0.0 - - 10 - - - -
29/11:00am 15.2 NNW 14 21 989.4 - 0.0 - Partly cloudy 10 - - - -
29/10:30am 12.9 NNW 12 16 989.5 - 0.0 - Partly cloudy 10 - - - -
29/10:00am 13.4 NNW 15 22 989.6 - 0.0 - Partly cloudy 10 - - - -
29/09:30am 14.6 NNW 15 21 989.0 - 0.0 - Partly cloudy 10 - - - -
29/09:00am 13.8 NNW 11 17 989.3 - 2.4 - Cloudy 10 - - - -
29/08:30am 12.5 NNW 13 17 989.3 - 2.4 - Partly cloudy 10 - - - -
29/08:00am 12.6 N 11 17 989.1 - 2.4 - Partly cloudy 10 - - - -
29/07:30am 12.7 NNW 12 17 989.2 - 2.4 - Partly cloudy 10 - - - -
29/07:00am 13.2 NNW 10 16 988.8 - 2.4 - Partly cloudy 10 - - - -
29/06:30am 13.6 NNE 11 16 988.0 - 2.4 - Partly cloudy 10 - - - -
29/06:00am 13.5 NNE 14 19 987.9 - 2.4 - Cloudy 10 - - - -
29/05:30am 13.9 NNE 14 21 987.4 - 2.4 - Partly cloudy 10 - - - -
29/05:01am 13.8 N 16 26 987.9 - 2.4 - Cloudy 10 - - - -
29/05:00am 13.9 N 17 26 988.0 - 2.4 - Cloudy 10 - - - -
29/04:30am 14.1 NNE 21 29 987.6 - 2.4 - Partly cloudy 10 - - - -
29/04:10am 13.6 NNE 15 27 987.8 - 2.4 - Partly cloudy 10 - - - -
29/04:00am 13.7 NNE 17 23 987.8 - 2.4 - Partly cloudy 10 - - - -
29/03:30am 13.7 NNE 18 25 988.3 - 2.4 - Partly cloudy 10 - - - -
29/03:00am 13.7 NNE 17 25 988.7 - 2.4 Recent precip. Cloudy 10 - - - -
29/02:30am 13.7 NNE 19 31 989.5 - 2.2 - Partly cloudy 10 - - - -
29/02:05am 13.4 NNE 16 30 990.2 - 2.2 - Partly cloudy 10 - - - -
29/02:00am 13.2 NNE 15 23 990.6 - 2.2 - Partly cloudy 10 - - - -
29/01:30am 13.1 NNE 14 19 991.6 - 2.0 - Partly cloudy 10 - - - -
29/01:00am 13.0 NNE 11 16 992.7 - 1.6 - Partly cloudy 10 - - - -
29/12:30am 13.2 NNE 14 25 993.2 - 1.0 - Partly cloudy 10 - - - -
29/12:02am 14.0 NNE 18 28 993.8 - 0.4 - Partly cloudy 10 - - - -
29/12:00am 14.2 NE 19 28 993.7 - 0.2 Rain Cloudy 10 - - - -
 
Date/Time
EST
Temp
°C
Wind Pressure Rain since
9am
mm
Weather Cloud Vis
km
Sea
Height
m
Swell
Dir  Spd
kts
Gust
kts
hPa Trend Height
m
Period
s
Dir
28/11:39pm 16.0 NNE 15 27 994.6 - 0.0 - Partly cloudy 10 - - - -
28/11:30pm 16.0 NNE 13 19 994.9 - 0.0 - Partly cloudy 10 - - - -
28/11:00pm 16.1 NE 15 25 995.3 - 0.0 - Partly cloudy 10 - - - -
28/10:30pm 16.0 NNE 15 25 996.7 - 0.0 - Partly cloudy 10 - - - -
28/10:27pm 16.0 NE 15 25 996.8 - 0.0 - Partly cloudy 10 - - - -
28/10:00pm 15.8 NNE 14 21 997.9 - 0.0 - Cloudy 10 - - - -
28/09:51pm 15.7 NNE 15 25 997.9 - 0.0 - Cloudy 10 - - - -
28/09:30pm 15.4 NE 13 20 997.9 - 0.0 - Partly cloudy 10 - - - -
28/09:00pm 15.4 NE 13 19 998.7 - 0.0 - Cloudy 10 - - - -
28/08:30pm 15.4 NNE 14 20 999.4 - 0.0 - - 10 - - - -
28/08:00pm 15.3 NNE 12 17 999.6 - 0.0 - - 10 - - - -
28/07:30pm 15.2 NE 12 17 999.9 - 0.0 - - 10 - - - -
28/07:00pm 15.2 NE 11 15 1000.3 - 0.0 - - 10 - - - -
28/06:30pm 15.3 NNE 12 18 1000.9 - 0.0 - - 10 - - - -
28/06:00pm 15.6 NNE 14 22 1001.3 - 0.0 - Cloudy 10 - - - -
28/05:30pm 15.7 NNE 14 22 1001.6 - 0.0 - - 10 - - - -
28/05:00pm 16.0 NNE 15 21 1002.0 - 0.0 - - 10 - - - -
28/04:30pm 16.1 N 13 19 1002.7 - 0.0 - - 10 - - - -
28/04:00pm 16.6 N 12 22 1002.8 - 0.0 - - 10 - - - -
28/03:30pm 17.1 N 14 23 1002.6 - 0.0 - - 10 - - - -
28/03:00pm 17.3 NNE 14 22 1003.4 - 0.0 - - 10 - - - -
28/02:34pm 17.1 NNE 16 27 1003.7 - 0.0 - - 10 - - - -
28/02:30pm 17.7 N 16 24 1004.0 - 0.0 - - 10 - - - -
28/02:00pm 17.4 NNE 16 24 1004.8 - 0.0 - Partly cloudy 10 - - - -
28/01:30pm 17.5 NNE 16 22 1006.0 - 0.0 - - 10 - - - -
28/01:00pm 17.4 NNE 14 24 1006.7 - 0.0 - - 10 - - - -
28/12:30pm 17.1 NNE 14 19 1007.8 - 0.0 - - 10 - - - -
28/12:00pm 17.2 N 12 17 1008.8 - 0.0 - - 10 - - - -
28/11:30am 17.2 NNE 11 16 1009.8 - 0.0 - - 10 - - - -
28/11:00am 16.6 NNE 11 16 1010.5 - 0.0 - - 10 - - - -
28/10:30am 15.9 NNE 11 16 1011.0 - 0.0 - - 10 - - - -
28/10:00am 14.8 N 10 14 1011.7 - 0.0 - - 10 - - - -
28/09:30am 15.0 N 8 10 1011.7 - 0.0 - - 10 - - - -
28/09:00am 13.7 N 8 12 1012.0 - 0.4 - - 10 - - - -
28/08:30am 12.7 N 8 11 1012.4 - 0.4 - - 10 - - - -
28/08:00am 11.5 N 7 11 1012.7 - 0.4 - - 10 - - - -
28/07:30am 9.9 N 6 9 1012.7 - 0.4 - Partly cloudy 10 - - - -
28/07:00am 8.3 N 8 11 1012.9 - 0.4 - Partly cloudy 10 - - - -
28/06:30am 7.2 NNE 7 10 1012.8 - 0.4 - - 10 - - - -
28/06:00am 7.0 N 7 9 1012.6 - 0.4 - - 10 - - - -
28/05:30am 6.5 N 7 8 1012.5 - 0.4 - - 10 - - - -
28/05:00am 6.0 N 5 6 1012.5 - 0.4 - - 10 - - - -
28/04:30am 6.5 NNE 5 6 1012.4 - 0.4 - Partly cloudy 10 - - - -
28/04:00am 6.7 NNE 5 6 1012.5 - 0.4 - Partly cloudy 10 - - - -
28/03:30am 7.0 NNE 5 6 1012.5 - 0.4 - Cloudy 10 - - - -
28/03:00am 7.1 NNE 5 7 1012.5 - 0.4 - Mostly cloudy 10 - - - -
28/02:30am 7.2 NNE 6 7 1012.5 - 0.4 - Cloudy 10 - - - -
28/02:00am 6.9 N 5 6 1012.5 - 0.4 - - 10 - - - -
28/01:30am 6.4 SSW 3 4 1012.6 - 0.4 - - 10 - - - -
28/01:00am 6.6 NW 3 5 1012.8 - 0.4 - Partly cloudy 10 - - - -
28/12:30am 7.2 NNW 4 5 1012.7 - 0.4 - Partly cloudy 10 - - - -
28/12:00am 7.2 NNW 3 5 1012.7 - 0.4 - - 10 - - - -
 
Date/Time
EST
Temp
°C
Wind Pressure Rain since
9am
mm
Weather Cloud Vis
km
Sea
Height
m
Swell
Dir  Spd
kts
Gust
kts
hPa Trend Height
m
Period
s
Dir
27/11:30pm 8.2 N 5 6 1012.6 - 0.4 - - 10 - - - -
27/11:00pm 8.7 N 5 6 1012.7 - 0.4 - - 10 - - - -
27/10:30pm 9.2 N 5 6 1013.0 - 0.4 - Partly cloudy 10 - - - -
27/10:00pm 8.8 N 4 5 1013.1 - 0.4 - Partly cloudy 10 - - - -
27/09:30pm 8.8 N 5 5 1013.2 - 0.4 - Partly cloudy 10 - - - -
27/09:00pm 9.4 NE 4 6 1013.3 - 0.4 - Mostly cloudy 10 - - - -
27/08:30pm 9.2 ESE 4 5 1013.3 - 0.4 - Partly cloudy 10 - - - -
27/08:00pm 10.3 ESE 4 5 1013.3 - 0.4 - - 10 - - - -
27/07:30pm 10.4 ESE 4 5 1013.1 - 0.4 - - 10 - - - -
27/07:00pm 10.9 ESE 4 4 1013.2 - 0.4 - Partly cloudy 10 - - - -
27/06:30pm 11.5 ESE 5 7 1013.0 - 0.4 - - 10 - - - -
27/06:00pm 13.5 SW 6 8 1012.8 - 0.4 - - 10 - - - -
27/05:30pm 14.8 WSW 11 16 1012.5 - 0.4 - Partly cloudy 10 - - - -
27/05:00pm 15.1 W 11 16 1012.2 - 0.4 - Partly cloudy 10 - - - -
27/04:30pm 15.2 WSW 9 15 1012.0 - 0.4 - Partly cloudy 10 - - - -
27/04:00pm 14.8 SW 9 13 1011.8 - 0.4 - Partly cloudy 10 - - - -
27/03:30pm 15.3 WSW 11 15 1011.7 - 0.4 - Partly cloudy 10 - - - -
27/03:00pm 14.6 WSW 10 14 1011.8 - 0.4 - Cloudy 10 - - - -
27/02:30pm 14.6 WSW 15 20 1011.8 - 0.4 - Partly cloudy 10 - - - -
27/02:00pm 13.7 WSW 13 19 1011.9 - 0.4 - Partly cloudy 10 - - - -
27/01:30pm 13.1 W 16 24 1012.0 - 0.4 - Partly cloudy 10 - - - -
27/01:00pm 13.8 WSW 17 23 1011.9 - 0.4 - Partly cloudy 10 - - - -
27/12:56pm 13.5 WSW 15 23 1012.0 - 0.4 - Partly cloudy 10 - - - -
27/12:42pm 12.6 WSW 15 22 1012.0 - 0.4 - Partly cloudy 7 - - - -
27/12:30pm 13.3 W 14 19 1012.0 - 0.4 - Partly cloudy 10 - - - -
27/12:22pm 13.2 W 13 21 1012.0 - 0.4 - Partly cloudy 10 - - - -
27/12:04pm 12.2 W 15 25 1012.0 - 0.4 - Partly cloudy 5 - - - -
27/12:00pm 12.4 W 16 25 1012.0 - 0.2 Rain Cloudy 7 - - - -
27/11:58am 12.7 W 15 25 1011.9 - 0.2 - Partly cloudy 10 - - - -
27/11:30am 14.6 W 10 14 1011.6 - 0.0 - Partly cloudy 10 - - - -
27/11:00am 14.1 W 10 13 1011.7 - 0.0 - Partly cloudy 10 - - - -
27/10:30am 13.7 W 10 16 1011.9 - 0.0 - Partly cloudy 10 - - - -
27/10:00am 12.7 W 10 15 1012.0 - 0.0 - Partly cloudy 10 - - - -
27/09:30am 12.1 W 9 13 1012.0 - 0.0 - Partly cloudy 10 - - - -
27/09:00am 11.3 W 11 14 1011.8 - 6.4 - - 10 - - - -
27/08:30am 10.3 WNW 10 14 1011.6 - 6.4 - - 10 - - - -
27/08:00am 9.4 WNW 10 14 1011.3 - 6.4 - - 10 - - - -
27/07:30am 7.9 NW 7 9 1011.2 - 6.4 - - 10 - - - -
27/07:00am 6.2 NW 6 8 1010.8 - 6.4 - - 10 - - - -
27/06:30am 4.7 NW 6 7 1010.6 - 6.4 - - 10 - - - -
27/06:00am 4.5 NW 7 8 1010.2 - 6.4 - - 10 - - - -
27/05:30am 4.9 NW 7 8 1009.9 - 6.4 - - 10 - - - -
27/05:00am 5.5 WNW 8 9 1009.8 - 6.4 - - 10 - - - -
27/04:30am 5.7 WNW 7 9 1009.7 - 6.4 - - 10 - - - -
27/04:00am 6.1 NW 7 8 1009.5 - 6.4 - - 10 - - - -
27/03:30am 6.6 WNW 7 9 1009.4 - 6.4 - - 10 - - - -
27/03:00am 6.9 NW 6 7 1009.4 - 6.4 Recent precip. Mostly cloudy 10 - - - -
27/02:30am 7.8 WNW 6 8 1009.4 - 6.4 - Partly cloudy 10 - - - -
27/02:00am 8.5 W 7 10 1009.7 - 6.2 - Partly cloudy 10 - - - -
27/01:30am 8.5 WNW 6 8 1009.8 - 6.2 - Partly cloudy 10 - - - -
27/01:00am 8.4 NNW 5 7 1009.9 - 6.0 - Partly cloudy 10 - - - -
27/12:30am 8.3 NNW 4 5 1009.9 - 6.0 - Partly cloudy 10 - - - -
27/12:00am 8.1 N 5 6 1009.9 - 5.8 - Cloudy 10 - - - -
 
Date/Time
EST
Temp
°C
Wind Pressure Rain since
9am
mm
Weather Cloud Vis
km
Sea
Height
m
Swell
Dir  Spd
kts
Gust
kts
hPa Trend Height
m
Period
s
Dir
26/11:30pm 7.9 N 4 5 1010.0 - 5.8 - Partly cloudy 10 - - - -
26/11:00pm 8.1 NNE 1 4 1010.1 - 5.8 - Partly cloudy 10 - - - -
26/10:30pm 8.2 NE 4 5 1009.9 - 5.8 - Partly cloudy 10 - - - -
26/10:00pm 8.0 N 7 10 1010.7 - 5.8 - Partly cloudy 10 - - - -
26/09:30pm 8.0 NW 5 9 1010.8 - 5.6 - Partly cloudy 9 - - - -
26/09:02pm 8.1 W 8 12 1011.1 - 5.2 - Partly cloudy 10 - - - -
26/09:00pm 8.1 W 8 12 1011.1 - 5.0 Rain Cloudy 10 - - - -
26/08:30pm 8.0 WSW 13 19 1010.8 - 3.0 - Partly cloudy 6 - - - -
26/08:26pm 8.1 WSW 14 21 1010.8 - 2.4 - Partly cloudy 7 - - - -
26/08:07pm 9.9 WSW 10 25 1010.5 - 1.6 - Partly cloudy 10 - - - -
26/08:00pm 10.5 NNW 3 5 1009.8 - 1.6 - Partly cloudy 10 - - - -
26/07:30pm 10.7 CALM 0 0 1009.5 - 1.6 - Partly cloudy 10 - - - -
26/07:25pm 10.7 NNW 1 3 1009.6 - 1.6 - Partly cloudy 10 - - - -
26/07:08pm 10.8 NNW 5 7 1009.7 - 1.4 - Partly cloudy 7 - - - -
26/07:00pm 10.9 NW 6 8 1009.8 - 1.2 - Partly cloudy 10 - - - -
26/06:30pm 11.0 NNW 5 7 1009.5 - 1.0 - Partly cloudy 10 - - - -
26/06:21pm 11.0 NW 7 9 1009.7 - 1.0 - Partly cloudy 10 - - - -
26/06:04pm 10.9 NW 19 29 1009.6 - 0.6 - Partly cloudy 5 - - - -
26/06:01pm 11.2 NW 20 29 1009.5 - 0.4 - Partly cloudy 6 - - - -
26/06:00pm 11.4 NW 19 29 1009.5 - 0.2 Rain Cloudy 8 - - - -
26/05:54pm 13.4 NNW 12 27 1009.2 - 0.0 - Partly cloudy 10 - - - -
26/05:30pm 14.9 NNE 3 7 1008.6 - 0.0 - Partly cloudy 10 - - - -
26/05:00pm 14.8 NNE 5 6 1008.3 - 0.0 - Partly cloudy 10 - - - -
26/04:30pm 15.1 NE 6 8 1008.4 - 0.0 - Partly cloudy 10 - - - -
26/04:00pm 14.8 N 7 10 1008.8 - 0.0 - Partly cloudy 10 - - - -
26/03:30pm 15.9 NW 9 13 1009.0 - 0.0 - Cloudy 10 - - - -

Other Formats:

Comma delimited format used in spreadsheet applications
http://www.bom.gov.au/fwo/IDV60701/IDV60701.94865.axf

JavaScript Object Notation format (JSON) in row-major order
http://www.bom.gov.au/fwo/IDV60701/IDV60701.94865.json